Time;durP1;ratioP1;P1;durP2;ratioP2;P2;SDS_P1;SDS_P2;PMS_P1;PMS_P2;Temp;Humidity;BMP_temperature;BMP_pressure;BME280_temperature;BME280_humidity;BME280_pressure;Samples;Min_cycle;Max_cycle;Signal;HPM_P1;HPM_P2
2022/09/20 00:00:40;;;;;;;6.57;1.27;;;14.70;60.80;;;;;;4980847;28;20046;-59
2022/09/20 00:03:07;;;;;;;6.70;1.23;;;14.70;60.80;;;;;;4982761;28;20058;-59
2022/09/20 00:05:35;;;;;;;16.75;2.20;;;14.70;60.80;;;;;;4981330;28;20057;-59
2022/09/20 00:08:06;;;;;;;8.32;1.70;;;14.70;60.90;;;;;;4981400;28;20054;-54
2022/09/20 00:10:35;;;;;;;6.50;1.40;;;14.70;60.90;;;;;;4981867;28;20050;-59
2022/09/20 00:13:02;;;;;;;4.75;1.20;;;14.70;60.80;;;;;;4979537;28;20062;-59
2022/09/20 00:15:30;;;;;;;4.13;1.02;;;14.70;60.80;;;;;;4978971;28;20066;-56
2022/09/20 00:17:58;;;;;;;7.97;1.10;;;14.70;60.90;;;;;;4982401;28;20058;-59
2022/09/20 00:20:25;;;;;;;9.30;1.75;;;14.70;60.90;;;;;;4981166;28;20058;-60
2022/09/20 00:22:52;;;;;;;9.18;1.50;;;14.70;61.00;;;;;;4981918;28;20061;-57
2022/09/20 00:25:21;;;;;;;8.30;1.63;;;14.70;61.10;;;;;;4978470;28;20058;-59
2022/09/20 00:27:48;;;;;;;5.25;1.45;;;14.70;61.10;;;;;;4983420;28;20418;-57
2022/09/20 00:30:15;;;;;;;7.78;1.50;;;14.60;61.10;;;;;;4984996;28;20386;-59
2022/09/20 00:32:43;;;;;;;8.95;1.60;;;14.60;61.20;;;;;;4984121;28;20549;-58
2022/09/20 00:35:09;;;;;;;10.85;1.50;;;14.60;61.30;;;;;;4985681;28;20060;-59
2022/09/20 00:37:38;;;;;;;6.50;1.63;;;14.60;61.30;;;;;;4986814;28;20050;-59
2022/09/20 00:40:09;;;;;;;3.38;1.10;;;14.60;61.40;;;;;;4985998;28;20073;-60
2022/09/20 00:42:37;;;;;;;5.55;1.50;;;14.60;61.50;;;;;;4985622;28;20486;-60
2022/09/20 00:45:07;;;;;;;4.22;1.20;;;14.60;61.70;;;;;;4981499;28;20054;-57
2022/09/20 00:47:38;;;;;;;4.57;1.15;;;14.60;61.70;;;;;;4986272;28;20061;-59
2022/09/20 00:50:15;;;;;;;9.20;1.45;;;14.60;61.80;;;;;;4984693;28;20058;-59
2022/09/20 00:52:45;;;;;;;8.65;1.52;;;14.60;61.90;;;;;;4984455;28;20498;-60
2022/09/20 00:55:14;;;;;;;13.75;1.90;;;14.60;62.00;;;;;;4982726;28;20062;-59
2022/09/20 00:57:43;;;;;;;6.00;1.75;;;14.60;62.00;;;;;;4984041;28;20046;-56
2022/09/20 01:00:15;;;;;;;5.43;1.83;;;14.60;62.10;;;;;;4983310;28;20513;-57
2022/09/20 01:02:45;;;;;;;4.72;1.45;;;14.60;62.20;;;;;;4985510;28;20065;-49
2022/09/20 01:05:14;;;;;;;5.82;1.50;;;14.60;62.20;;;;;;4981434;28;20060;-48
2022/09/20 01:07:43;;;;;;;13.70;2.30;;;14.60;62.30;;;;;;4981146;28;20050;-52
2022/09/20 01:10:10;;;;;;;8.70;1.67;;;14.60;62.40;;;;;;4981195;28;20065;-50
2022/09/20 01:12:39;;;;;;;9.02;2.50;;;14.60;62.50;;;;;;4980046;28;20065;-48
2022/09/20 01:15:09;;;;;;;10.18;2.05;;;14.60;62.60;;;;;;4981117;28;20483;-47
2022/09/20 01:17:41;;;;;;;7.05;1.70;;;14.50;62.80;;;;;;4984063;28;20050;-50
2022/09/20 01:20:14;;;;;;;7.00;1.65;;;14.50;62.90;;;;;;4985157;28;20062;-50
2022/09/20 01:22:50;;;;;;;5.85;2.00;;;14.50;63.10;;;;;;4981980;28;20065;-49
2022/09/20 01:25:27;;;;;;;4.78;1.58;;;14.50;63.20;;;;;;4983209;28;20062;-48
2022/09/20 01:27:56;;;;;;;8.98;1.65;;;14.50;63.30;;;;;;4982378;28;20054;-51
2022/09/20 01:30:25;;;;;;;10.30;1.98;;;14.50;63.40;;;;;;4983395;28;20065;-50
2022/09/20 01:33:09;;;;;;;9.07;1.67;;;14.50;63.50;;;;;;4984222;28;20062;-50
2022/09/20 01:35:38;;;;;;;7.70;1.60;;;14.50;63.60;;;;;;4982884;28;20050;-48
2022/09/20 01:38:19;;;;;;;11.52;1.90;;;14.50;63.50;;;;;;4977444;28;20500;-47
2022/09/20 01:40:56;;;;;;;11.70;2.05;;;14.50;63.60;;;;;;4981234;28;20077;-49
2022/09/20 01:43:31;;;;;;;6.30;1.90;;;14.50;63.60;;;;;;4983721;28;20055;-50
2022/09/20 01:46:03;;;;;;;14.07;2.08;;;14.40;63.60;;;;;;4982028;28;20425;-47
2022/09/20 01:48:35;;;;;;;10.48;2.03;;;14.40;63.70;;;;;;4983266;28;20418;-46
2022/09/20 01:51:31;;;;;;;14.82;2.10;;;14.40;63.80;;;;;;4982342;28;20061;-50
2022/09/20 01:54:15;;;;;;;9.35;2.33;;;14.30;64.00;;;;;;4978324;28;20058;-50
2022/09/20 01:57:16;;;;;;;5.63;1.80;;;14.30;64.10;;;;;;4981905;28;20082;-48
2022/09/20 02:00:14;;;;;;;18.52;2.70;;;14.40;64.20;;;;;;4973108;28;20073;-47
2022/09/20 02:03:26;;;;;;;11.85;2.08;;;14.30;64.20;;;;;;4980105;28;20057;-49
2022/09/20 02:06:22;;;;;;;5.68;1.90;;;14.30;64.30;;;;;;4979410;28;20062;-47
2022/09/20 02:09:22;;;;;;;8.02;2.20;;;14.30;64.40;;;;;;4981641;28;20050;-48
2022/09/20 02:12:08;;;;;;;10.20;2.17;;;14.20;64.50;;;;;;4946535;28;20509;-48
2022/09/20 02:14:44;;;;;;;13.88;2.65;;;14.20;64.60;;;;;;4980362;28;20058;-48
2022/09/20 02:17:22;;;;;;;11.93;2.85;;;14.10;64.90;;;;;;4979846;28;20061;-48
2022/09/20 02:20:00;;;;;;;10.43;2.40;;;14.10;65.20;;;;;;4983814;28;20050;-48
2022/09/20 02:22:40;;;;;;;8.82;2.60;;;14.00;65.40;;;;;;4981912;28;20054;-50
2022/09/20 02:25:20;;;;;;;12.25;2.58;;;14.00;65.70;;;;;;4977768;28;20050;-51
2022/09/20 02:27:59;;;;;;;9.18;2.22;;;13.90;65.90;;;;;;4980454;28;20055;-49
2022/09/20 02:30:42;;;;;;;14.60;2.70;;;14.00;66.10;;;;;;4981382;28;20069;-50
2022/09/20 02:33:35;;;;;;;9.43;2.60;;;13.90;66.20;;;;;;4982162;28;20050;-45
2022/09/20 02:36:25;;;;;;;8.55;2.40;;;13.90;66.50;;;;;;4977902;28;20073;-49
2022/09/20 02:39:01;;;;;;;6.97;2.00;;;13.90;66.60;;;;;;4978189;28;20507;-48
2022/09/20 02:41:57;;;;;;;8.15;2.33;;;13.80;66.70;;;;;;4979450;28;20499;-49
2022/09/20 02:44:36;;;;;;;13.55;3.05;;;13.80;66.90;;;;;;4982791;28;20065;-53
2022/09/20 02:47:13;;;;;;;12.27;3.28;;;13.80;67.00;;;;;;4980993;28;20058;-49
2022/09/20 02:49:57;;;;;;;12.15;2.92;;;13.70;67.10;;;;;;4983487;28;20495;-49
2022/09/20 02:52:32;;;;;;;8.93;3.15;;;13.70;67.30;;;;;;4982119;28;20372;-52
2022/09/20 02:55:06;;;;;;;13.65;2.85;;;13.70;67.50;;;;;;4981547;28;20058;-51
2022/09/20 02:57:45;;;;;;;8.85;3.13;;;13.70;67.50;;;;;;4981606;28;20058;-57
2022/09/20 03:00:16;;;;;;;13.35;3.85;;;13.70;67.70;;;;;;4983120;28;20062;-49
2022/09/20 03:02:54;;;;;;;16.10;3.20;;;13.60;67.70;;;;;;4979166;28;20054;-49
2022/09/20 03:05:29;;;;;;;9.63;3.00;;;13.60;67.90;;;;;;4981529;28;20057;-54
2022/09/20 03:08:08;;;;;;;14.73;3.22;;;13.60;68.00;;;;;;4981647;28;20125;-54
2022/09/20 03:10:42;;;;;;;13.23;3.72;;;13.50;68.20;;;;;;4980982;28;20050;-47
2022/09/20 03:13:23;;;;;;;11.02;2.67;;;13.50;68.30;;;;;;4979655;28;20050;-51
2022/09/20 03:16:01;;;;;;;9.48;3.38;;;13.50;68.40;;;;;;4979521;28;20058;-48
2022/09/20 03:22:05;;;;;;;11.30;3.88;;;13.50;68.60;;;;;;4886693;29;20552;-47
2022/09/20 03:24:43;;;;;;;11.25;3.25;;;13.50;68.60;;;;;;4954357;28;20061;-47
2022/09/20 03:27:18;;;;;;;19.92;3.80;;;13.50;68.90;;;;;;4980862;28;20058;-50
2022/09/20 03:29:59;;;;;;;11.43;3.85;;;13.40;69.00;;;;;;4982778;28;20061;-48
2022/09/20 03:32:51;;;;;;;9.40;3.42;;;13.40;69.10;;;;;;4980847;28;20084;-48
2022/09/20 03:35:40;;;;;;;19.38;4.55;;;13.40;69.20;;;;;;4980627;28;20486;-50
2022/09/20 03:38:21;;;;;;;25.90;4.95;;;13.40;69.40;;;;;;4982737;28;20367;-50
2022/09/20 03:41:22;;;;;;;14.73;4.47;;;13.40;69.60;;;;;;4980994;28;20054;-52
2022/09/20 03:44:07;;;;;;;17.77;5.35;;;13.40;69.80;;;;;;4962978;28;20482;-47
2022/09/20 03:46:43;;;;;;;21.63;5.07;;;13.40;70.00;;;;;;4982289;28;20636;-47
2022/09/20 03:49:45;;;;;;;13.02;4.78;;;13.40;70.10;;;;;;4982130;28;20070;-52
2022/09/20 03:52:23;;;;;;;13.18;4.25;;;13.50;70.40;;;;;;4981911;28;20050;-48
2022/09/20 03:55:25;;;;;;;16.73;4.97;;;13.50;70.30;;;;;;4979605;28;20959;-50
2022/09/20 03:58:07;;;;;;;11.43;4.97;;;13.50;70.50;;;;;;4981173;28;20065;-52
2022/09/20 04:00:46;;;;;;;14.68;5.70;;;13.50;70.30;;;;;;4978990;28;20046;-47
2022/09/20 04:03:34;;;;;;;14.98;4.07;;;13.50;70.30;;;;;;4980055;28;20498;-54
2022/09/20 04:06:17;;;;;;;14.73;4.90;;;13.60;70.40;;;;;;4963839;28;20061;-50
2022/09/20 04:09:33;;;;;;;8.43;4.03;;;13.50;70.30;;;;;;4981507;28;20058;-50
2022/09/20 04:12:12;;;;;;;16.15;5.85;;;13.50;70.40;;;;;;4983297;28;20054;-51
2022/09/20 04:14:47;;;;;;;8.98;4.30;;;13.60;70.30;;;;;;4984446;28;20050;-49
2022/09/20 04:17:29;;;;;;;25.85;5.38;;;13.60;70.30;;;;;;4979817;28;20057;-50
2022/09/20 04:20:02;;;;;;;18.08;4.70;;;13.60;70.50;;;;;;4981555;28;20502;-48
2022/09/20 04:22:30;;;;;;;11.02;4.55;;;13.60;70.50;;;;;;4983023;28;20051;-52
2022/09/20 04:25:02;;;;;;;12.32;4.97;;;13.60;70.50;;;;;;4983526;28;20081;-50
2022/09/20 04:27:37;;;;;;;23.75;5.43;;;13.60;70.60;;;;;;4984138;28;20054;-51
2022/09/20 04:30:14;;;;;;;13.40;4.80;;;13.60;70.60;;;;;;4983928;28;20073;-53
2022/09/20 04:32:46;;;;;;;7.45;4.40;;;13.60;70.50;;;;;;4982618;28;20162;-50
2022/09/20 04:38:12;;;;;;;15.38;5.05;;;13.70;70.40;;;;;;4989976;28;20065;-50
2022/09/20 04:41:05;;;;;;;12.70;4.60;;;13.70;70.20;;;;;;4984926;28;20061;-50
2022/09/20 04:44:15;;;;;;;8.90;4.00;;;13.70;70.10;;;;;;4982488;28;20050;-50
2022/09/20 04:47:14;;;;;;;9.10;3.80;;;13.80;70.00;;;;;;4983229;28;20062;-47
2022/09/20 04:50:14;;;;;;;8.13;3.70;;;13.80;69.80;;;;;;4984877;28;20521;-46
2022/09/20 04:53:23;;;;;;;10.55;4.00;;;13.90;69.60;;;;;;4983063;28;20053;-50
2022/09/20 04:55:54;;;;;;;12.73;4.10;;;13.90;69.30;;;;;;4985373;28;20054;-50
2022/09/20 04:58:49;;;;;;;13.55;4.40;;;13.90;69.00;;;;;;4985165;28;20055;-47
2022/09/20 05:01:31;;;;;;;;;;;13.90;69.00;;;;;;4986305;28;20058;-55
2022/09/20 05:04:30;;;;;;;17.27;5.05;;;14.00;69.00;;;;;;4962223;28;19925;-47
2022/09/20 05:07:24;;;;;;;23.67;8.20;;;13.90;68.70;;;;;;4983273;28;20061;-52
2022/09/20 05:10:20;;;;;;;17.35;4.97;;;13.90;68.70;;;;;;4981543;28;21385;-48
2022/09/20 05:13:04;;;;;;;11.50;3.67;;;14.00;68.80;;;;;;4980773;28;20054;-47
2022/09/20 05:15:42;;;;;;;12.73;4.53;;;14.00;68.90;;;;;;4979901;28;20050;-48
2022/09/20 05:18:44;;;;;;;8.73;3.90;;;13.90;68.90;;;;;;4978441;28;20494;-48
2022/09/20 05:21:29;;;;;;;19.10;4.05;;;13.90;69.00;;;;;;4979151;28;20050;-49
2022/09/20 05:24:11;;;;;;;8.43;3.10;;;14.00;69.00;;;;;;4984391;28;20065;-50
2022/09/20 05:26:51;;;;;;;13.05;4.13;;;14.00;68.90;;;;;;4981583;28;20414;-53
2022/09/20 05:29:25;;;;;;;11.30;3.55;;;14.00;68.80;;;;;;4982737;28;20058;-50
2022/09/20 05:32:01;;;;;;;6.35;3.03;;;14.00;68.80;;;;;;4979474;28;20438;-46
2022/09/20 05:34:34;;;;;;;14.38;3.58;;;14.00;68.70;;;;;;4981302;28;20054;-47
2022/09/20 05:37:10;;;;;;;11.13;3.60;;;14.10;68.70;;;;;;4980802;28;20406;-53
2022/09/20 05:39:42;;;;;;;8.90;4.03;;;14.10;68.70;;;;;;4984138;28;20434;-45
2022/09/20 05:42:17;;;;;;;9.00;3.38;;;14.10;68.70;;;;;;4975889;28;20066;-51
2022/09/20 05:44:57;;;;;;;9.05;3.63;;;14.10;68.70;;;;;;4983925;28;20058;-47
2022/09/20 05:47:35;;;;;;;13.32;3.78;;;14.10;68.70;;;;;;4976851;28;20062;-50
2022/09/20 05:50:27;;;;;;;7.70;2.88;;;14.10;68.50;;;;;;4982231;28;20054;-54
2022/09/20 05:53:03;;;;;;;11.10;2.97;;;14.20;68.60;;;;;;4982513;28;20490;-49
2022/09/20 05:56:02;;;;;;;12.65;3.58;;;14.20;68.50;;;;;;4982174;28;20050;-52
2022/09/20 05:58:52;;;;;;;10.77;3.10;;;14.20;69.20;;;;;;4975010;28;20046;-55
2022/09/20 06:01:24;;;;;;;15.57;3.67;;;14.20;68.30;;;;;;4979099;28;20437;-50
2022/09/20 06:04:01;;;;;;;10.20;2.90;;;14.20;68.10;;;;;;4980387;28;20050;-49
2022/09/20 06:06:31;;;;;;;8.25;2.92;;;14.30;68.10;;;;;;4976698;28;20054;-48
2022/09/20 06:09:16;;;;;;;12.00;3.25;;;14.20;68.00;;;;;;4978940;28;20065;-47
2022/09/20 06:11:56;;;;;;;13.68;2.88;;;14.30;68.00;;;;;;4980252;28;20065;-48
2022/09/20 06:14:38;;;;;;;14.45;3.42;;;14.30;68.00;;;;;;4983803;28;20050;-49
2022/09/20 06:17:16;;;;;;;10.13;3.30;;;14.30;67.90;;;;;;4982575;28;20057;-48
2022/09/20 06:19:47;;;;;;;11.80;3.10;;;14.30;68.00;;;;;;4966329;28;20430;-49
2022/09/20 06:22:21;;;;;;;15.60;2.90;;;14.30;68.10;;;;;;4982023;28;20050;-47
2022/09/20 06:24:53;;;;;;;;;;;14.30;68.00;;;;;;4984108;28;20058;-49
2022/09/20 06:27:26;;;;;;;6.45;2.20;;;14.30;68.00;;;;;;4981892;28;19929;-45
2022/09/20 06:29:58;;;;;;;11.85;3.70;;;14.40;67.80;;;;;;4984271;28;20057;-49
2022/09/20 06:32:26;;;;;;;14.02;3.45;;;14.40;67.90;;;;;;4980096;28;20482;-49
2022/09/20 06:34:53;;;;;;;11.00;4.28;;;14.30;67.90;;;;;;4982047;28;20055;-50
2022/09/20 06:43:19;;;;;;;15.80;2.90;;;14.40;68.00;;;;;;4988122;28;20085;-51
2022/09/20 06:45:47;;;;;;;15.18;3.03;;;14.40;68.00;;;;;;4982090;28;20054;-53
2022/09/20 06:48:14;;;;;;;8.40;2.65;;;14.40;68.10;;;;;;4984030;28;20057;-48
2022/09/20 06:50:44;;;;;;;12.57;3.13;;;14.40;68.10;;;;;;4980572;28;20537;-52
2022/09/20 06:53:16;;;;;;;11.90;3.35;;;14.50;68.30;;;;;;4983071;28;20057;-49
2022/09/20 06:55:46;;;;;;;17.10;3.47;;;14.50;68.20;;;;;;4981425;28;20058;-47
2022/09/20 06:58:13;;;;;;;6.97;2.83;;;14.50;68.20;;;;;;4981178;28;20062;-50
2022/09/20 07:00:40;;;;;;;15.80;4.25;;;14.50;68.30;;;;;;4981471;28;20898;-46
2022/09/20 07:03:07;;;;;;;12.38;4.88;;;14.50;68.20;;;;;;4983400;28;20517;-48
2022/09/20 07:05:36;;;;;;;12.85;4.18;;;14.50;68.20;;;;;;4982788;28;20057;-48
2022/09/20 07:08:03;;;;;;;11.15;4.88;;;14.50;68.20;;;;;;4981322;28;20418;-49
2022/09/20 07:10:31;;;;;;;14.27;5.25;;;14.50;68.20;;;;;;4980476;28;20054;-48
2022/09/20 07:13:01;;;;;;;12.52;5.95;;;14.60;68.20;;;;;;4979552;28;20461;-51
2022/09/20 07:15:30;;;;;;;15.95;5.68;;;14.60;68.10;;;;;;4982820;28;20073;-48
2022/09/20 07:17:58;;;;;;;12.52;4.90;;;14.60;68.00;;;;;;4983310;28;20404;-49
2022/09/20 07:20:25;;;;;;;21.92;7.80;;;14.60;68.00;;;;;;4965654;28;20058;-51
2022/09/20 07:22:53;;;;;;;21.85;6.72;;;14.60;68.00;;;;;;4979794;28;20499;-51
2022/09/20 07:25:20;;;;;;;14.95;6.63;;;14.60;67.90;;;;;;4978497;28;20054;-53
2022/09/20 07:27:50;;;;;;;15.57;6.32;;;14.60;68.00;;;;;;4978799;28;20069;-56
2022/09/20 07:30:20;;;;;;;18.50;7.13;;;14.70;68.20;;;;;;4977741;28;20057;-51
2022/09/20 07:32:47;;;;;;;16.90;7.75;;;14.60;67.90;;;;;;4978010;28;20065;-51
2022/09/20 07:35:14;;;;;;;16.25;7.53;;;14.60;67.60;;;;;;4982011;28;20069;-51
2022/09/20 07:37:42;;;;;;;16.85;8.32;;;14.60;67.60;;;;;;4978583;28;20059;-52
2022/09/20 07:40:10;;;;;;;16.05;7.95;;;14.50;67.60;;;;;;4983233;28;20490;-50
2022/09/20 07:42:38;;;;;;;24.30;9.02;;;14.50;67.40;;;;;;4980680;28;20058;-54
2022/09/20 07:45:07;;;;;;;17.42;8.32;;;14.50;67.00;;;;;;4980161;28;20046;-54
2022/09/20 07:47:35;;;;;;;19.88;8.35;;;14.50;67.00;;;;;;4982569;28;20061;-49
2022/09/20 07:50:03;;;;;;;16.02;7.70;;;14.50;67.30;;;;;;4982684;28;20054;-53
2022/09/20 07:52:31;;;;;;;19.27;8.23;;;14.50;67.50;;;;;;4984539;28;20055;-45
2022/09/20 07:54:58;;;;;;;23.60;8.82;;;14.50;68.00;;;;;;4984592;28;20053;-52
2022/09/20 07:57:25;;;;;;;23.75;7.88;;;14.50;68.30;;;;;;4985412;28;20046;-46
2022/09/20 07:59:52;;;;;;;15.80;8.05;;;14.50;68.10;;;;;;4983327;28;20066;-52
2022/09/20 08:02:19;;;;;;;24.60;9.27;;;14.60;68.20;;;;;;4985746;28;20058;-48
2022/09/20 08:04:48;;;;;;;17.23;8.20;;;14.60;68.00;;;;;;4982434;28;20054;-51
2022/09/20 08:07:15;;;;;;;16.77;8.82;;;14.60;67.80;;;;;;4967403;28;20438;-49
2022/09/20 08:09:43;;;;;;;20.60;10.35;;;14.60;67.80;;;;;;4983466;28;20418;-49
2022/09/20 08:12:13;;;;;;;20.05;9.43;;;14.70;67.90;;;;;;4983186;28;20054;-47
2022/09/20 08:14:40;;;;;;;22.67;9.38;;;14.70;67.40;;;;;;4979764;28;20061;-51
2022/09/20 08:17:10;;;;;;;21.45;8.90;;;14.70;66.70;;;;;;4981349;28;20058;-52
2022/09/20 08:19:38;;;;;;;23.40;8.70;;;14.70;67.30;;;;;;4979600;28;20434;-56
2022/09/20 08:22:09;;;;;;;15.77;7.85;;;14.70;67.40;;;;;;4984943;28;20874;-48
2022/09/20 08:24:36;;;;;;;10.75;6.68;;;14.80;67.50;;;;;;4985414;28;20517;-51
2022/09/20 08:27:04;;;;;;;16.00;6.88;;;14.80;67.40;;;;;;4979078;28;20069;-49
2022/09/20 08:29:31;;;;;;;18.70;6.68;;;14.80;66.90;;;;;;4981854;28;20050;-49
2022/09/20 08:32:00;;;;;;;19.58;7.32;;;14.90;66.20;;;;;;4985097;28;20066;-56
2022/09/20 08:34:27;;;;;;;12.27;6.13;;;15.00;66.60;;;;;;4983931;28;20057;-49
2022/09/20 08:36:55;;;;;;;18.65;5.18;;;15.00;65.30;;;;;;4982306;28;20054;-50
2022/09/20 08:39:24;;;;;;;9.23;3.83;;;15.10;64.90;;;;;;4984438;28;20065;-47
2022/09/20 08:41:56;;;;;;;16.23;5.53;;;15.10;65.50;;;;;;4982359;28;20054;-48
2022/09/20 08:44:27;;;;;;;14.18;4.32;;;15.20;64.80;;;;;;4981489;28;20051;-55
2022/09/20 08:47:05;;;;;;;14.45;4.32;;;15.20;64.10;;;;;;4982167;28;20062;-54
2022/09/20 08:49:33;;;;;;;20.33;4.93;;;15.30;62.80;;;;;;4976923;28;20713;-54
2022/09/20 08:52:02;;;;;;;16.17;3.45;;;15.30;62.00;;;;;;4983605;28;20081;-51
2022/09/20 08:54:35;;;;;;;10.85;3.70;;;15.30;62.20;;;;;;4979477;28;20058;-52
2022/09/20 08:57:05;;;;;;;10.63;3.20;;;15.20;61.60;;;;;;4981954;28;20054;-48
2022/09/20 08:59:33;;;;;;;19.77;3.55;;;15.30;62.30;;;;;;4983129;28;20050;-54
2022/09/20 09:02:00;;;;;;;11.05;2.95;;;15.30;62.00;;;;;;4977440;28;20062;-53
2022/09/20 09:04:35;;;;;;;12.23;2.95;;;15.30;62.60;;;;;;4980208;28;20138;-54
2022/09/20 09:07:03;;;;;;;20.23;3.83;;;15.30;62.30;;;;;;4978096;28;22027;-48
2022/09/20 09:09:37;;;;;;;9.70;2.38;;;15.40;61.80;;;;;;4982596;28;20050;-53
2022/09/20 09:12:04;;;;;;;13.60;2.50;;;15.40;61.10;;;;;;4979232;28;20050;-50
2022/09/20 09:14:51;;;;;;;15.20;2.80;;;15.50;61.20;;;;;;4980878;28;20811;-53
2022/09/20 09:17:20;;;;;;;11.63;2.20;;;15.50;60.10;;;;;;4979151;28;20058;-57
2022/09/20 09:19:49;;;;;;;8.50;2.03;;;15.60;59.40;;;;;;4986219;28;20077;-55
2022/09/20 09:22:25;;;;;;;8.27;2.05;;;15.60;59.00;;;;;;4984010;28;20084;-57
2022/09/20 09:25:32;;;;;;;11.13;2.28;;;15.60;58.60;;;;;;4982292;28;20046;-54
2022/09/20 09:28:02;;;;;;;12.40;2.00;;;15.50;59.00;;;;;;4978023;28;20161;-54
2022/09/20 09:30:32;;;;;;;21.38;2.53;;;15.60;58.70;;;;;;4983566;28;20069;-54
2022/09/20 09:33:33;;;;;;;12.15;2.40;;;15.60;58.30;;;;;;4985676;28;20482;-54
2022/09/20 09:36:07;;;;;;;11.48;2.70;;;15.60;57.80;;;;;;4887652;29;20064;-52
2022/09/20 09:38:37;;;;;;;11.43;1.52;;;15.70;57.60;;;;;;4888498;29;20052;-48
2022/09/20 09:41:25;;;;;;;24.40;3.17;;;15.70;57.70;;;;;;4935561;28;20065;-52
2022/09/20 09:43:59;;;;;;;7.30;1.60;;;15.70;57.20;;;;;;4983008;28;20069;-52
2022/09/20 09:46:31;;;;;;;11.23;2.10;;;15.80;57.40;;;;;;4977828;28;20069;-54
2022/09/20 09:49:14;;;;;;;8.38;1.75;;;15.80;57.40;;;;;;4985041;28;20528;-52
2022/09/20 09:52:00;;;;;;;7.55;1.48;;;15.80;56.20;;;;;;4985130;28;20058;-53
2022/09/20 09:54:30;;;;;;;12.82;1.58;;;15.80;55.90;;;;;;4980647;28;20050;-50
2022/09/20 09:57:21;;;;;;;7.22;1.55;;;15.90;55.60;;;;;;4976476;28;20050;-51
2022/09/20 10:00:05;;;;;;;9.80;2.05;;;15.90;54.40;;;;;;4978097;28;20506;-57
2022/09/20 10:02:49;;;;;;;9.57;1.55;;;15.90;54.40;;;;;;4983074;28;20065;-52
2022/09/20 10:05:21;;;;;;;8.68;1.67;;;16.00;55.20;;;;;;4982650;28;20061;-51
2022/09/20 10:07:55;;;;;;;7.10;1.23;;;16.00;54.70;;;;;;4980500;28;20077;-53
2022/09/20 10:10:31;;;;;;;10.38;1.50;;;16.00;53.20;;;;;;4980052;28;20057;-54
2022/09/20 10:13:14;;;;;;;10.00;1.63;;;15.90;50.30;;;;;;4980714;28;20058;-50
2022/09/20 10:15:47;;;;;;;8.98;1.10;;;15.90;49.90;;;;;;4982473;28;20050;-50
2022/09/20 10:18:31;;;;;;;6.00;1.40;;;16.00;51.60;;;;;;4984721;28;22115;-47
2022/09/20 10:21:08;;;;;;;10.05;1.20;;;16.10;51.10;;;;;;4982514;28;20414;-51
2022/09/20 10:23:52;;;;;;;5.68;1.60;;;16.20;51.40;;;;;;4981605;28;20046;-48
2022/09/20 10:26:33;;;;;;;8.10;2.27;;;16.20;53.00;;;;;;4977233;28;20050;-53
2022/09/20 10:29:11;;;;;;;7.38;1.35;;;16.30;53.20;;;;;;4976600;28;20054;-51
2022/09/20 10:31:51;;;;;;;7.82;1.10;;;16.40;53.60;;;;;;4981974;28;20062;-51
2022/09/20 10:34:50;;;;;;;8.00;1.48;;;16.40;53.60;;;;;;4980269;28;20050;-54
2022/09/20 10:37:26;;;;;;;8.75;1.23;;;16.50;53.00;;;;;;4970112;28;20432;-55
2022/09/20 10:40:03;;;;;;;6.53;1.33;;;16.50;51.70;;;;;;4979064;28;20050;-55
2022/09/20 10:45:33;;;;;;;6.80;1.40;;;16.40;51.00;;;;;;4984630;28;20058;-53
2022/09/20 10:48:06;;;;;;;6.03;1.80;;;16.40;51.80;;;;;;4979415;28;20057;-53
2022/09/20 10:50:41;;;;;;;10.20;1.60;;;16.40;52.00;;;;;;4980252;28;20483;-49
2022/09/20 10:53:21;;;;;;;15.25;1.73;;;16.30;52.40;;;;;;4981498;28;20050;-56
2022/09/20 10:55:58;;;;;;;6.05;1.30;;;16.30;52.50;;;;;;4979537;28;20050;-54
2022/09/20 10:58:59;;;;;;;5.25;1.40;;;16.20;51.90;;;;;;4981677;28;20050;-52
2022/09/20 11:01:34;;;;;;;10.50;1.85;;;16.10;52.00;;;;;;4976411;28;20057;-55
2022/09/20 11:04:20;;;;;;;10.43;1.52;;;16.10;52.10;;;;;;4982354;28;20089;-55
2022/09/20 11:06:54;;;;;;;4.45;1.10;;;16.00;52.40;;;;;;4978609;28;20061;-53
2022/09/20 11:09:25;;;;;;;14.10;1.98;;;16.00;51.90;;;;;;4981664;28;20054;-53
2022/09/20 11:11:59;;;;;;;10.70;1.55;;;15.90;51.80;;;;;;4981657;28;20062;-56
2022/09/20 11:14:32;;;;;;;;;;;15.90;52.30;;;;;;4984029;28;20053;-52
2022/09/20 11:17:10;;;;;;;6.07;1.30;;;15.90;53.00;;;;;;4979005;28;19925;-52
2022/09/20 11:19:48;;;;;;;9.02;1.38;;;15.80;52.90;;;;;;4979319;28;20058;-56
2022/09/20 11:22:20;;;;;;;9.32;1.20;;;15.80;53.20;;;;;;4981426;28;20051;-54
2022/09/20 11:24:51;;;;;;;5.78;1.48;;;15.80;53.60;;;;;;4982745;28;20061;-54
2022/09/20 11:27:23;;;;;;;8.57;1.92;;;15.80;53.80;;;;;;4979889;28;20424;-51
2022/09/20 11:29:57;;;;;;;7.63;0.95;;;15.80;53.90;;;;;;4981995;28;20054;-55
2022/09/20 11:32:30;;;;;;;4.35;0.90;;;15.80;54.00;;;;;;4981586;28;20061;-51
2022/09/20 11:35:02;;;;;;;11.47;1.43;;;15.80;53.20;;;;;;4979815;28;20054;-49
2022/09/20 11:37:34;;;;;;;7.00;1.13;;;15.90;53.30;;;;;;4982648;28;20488;-53
2022/09/20 11:40:15;;;;;;;7.47;0.95;;;15.90;53.50;;;;;;4983235;28;20058;-54
2022/09/20 11:42:43;;;;;;;5.75;1.52;;;15.90;53.20;;;;;;4980688;28;20050;-56
2022/09/20 11:45:12;;;;;;;4.40;1.10;;;15.90;53.00;;;;;;4980991;28;20050;-52
2022/09/20 11:47:46;;;;;;;5.68;1.08;;;16.00;52.80;;;;;;4976494;28;20521;-54
2022/09/20 11:50:41;;;;;;;6.43;1.45;;;16.00;52.90;;;;;;4982851;28;20058;-53
2022/09/20 11:53:25;;;;;;;10.43;1.20;;;16.00;52.40;;;;;;4982465;28;20058;-52
2022/09/20 11:56:00;;;;;;;8.65;1.58;;;16.00;51.60;;;;;;4980294;28;20494;-56
2022/09/20 11:58:28;;;;;;;5.25;0.98;;;16.00;51.70;;;;;;4976770;28;20541;-53
2022/09/20 12:00:57;;;;;;;8.45;1.20;;;16.10;51.70;;;;;;4978166;28;20069;-56
2022/09/20 12:03:32;;;;;;;8.02;0.80;;;16.10;51.80;;;;;;4978521;28;20142;-48
2022/09/20 12:06:02;;;;;;;8.32;1.25;;;16.20;52.00;;;;;;4976451;28;20062;-51
2022/09/20 12:08:32;;;;;;;10.82;1.20;;;16.30;52.20;;;;;;4974064;28;20061;-54
2022/09/20 12:11:03;;;;;;;7.38;1.10;;;16.30;52.20;;;;;;4967937;28;20495;-54
2022/09/20 12:13:31;;;;;;;5.07;1.10;;;16.40;52.40;;;;;;4957939;28;20055;-50
2022/09/20 12:16:02;;;;;;;9.80;1.60;;;16.40;51.70;;;;;;4979396;28;20054;-47
2022/09/20 12:18:45;;;;;;;9.88;1.70;;;16.50;51.90;;;;;;4981871;28;20074;-54
2022/09/20 12:21:19;;;;;;;15.27;1.03;;;16.50;51.70;;;;;;4980247;28;20069;-44
2022/09/20 12:24:29;;;;;;;4.32;1.20;;;16.60;52.20;;;;;;4979861;28;20062;-51
2022/09/20 12:26:58;;;;;;;7.70;1.50;;;16.60;52.10;;;;;;4969845;28;20062;-51
2022/09/20 12:30:07;;;;;;;8.88;1.40;;;16.60;51.40;;;;;;4976196;28;20050;-49
2022/09/20 12:32:53;;;;;;;5.97;0.90;;;16.50;51.20;;;;;;4981044;28;20050;-50
2022/09/20 12:35:59;;;;;;;6.78;1.20;;;16.50;51.80;;;;;;4981105;28;20061;-49
2022/09/20 12:38:31;;;;;;;13.70;1.83;;;16.60;51.90;;;;;;4950835;28;20058;-52
2022/09/20 12:41:07;;;;;;;5.80;1.30;;;16.60;51.70;;;;;;4982606;28;20050;-50
2022/09/20 12:43:37;;;;;;;13.25;1.90;;;16.60;51.60;;;;;;4982537;28;20054;-50
2022/09/20 12:46:05;;;;;;;5.07;1.50;;;16.60;52.10;;;;;;4980757;28;20054;-48
2022/09/20 12:48:36;;;;;;;14.52;1.70;;;16.60;51.80;;;;;;4982263;28;20053;-49
2022/09/20 12:54:06;;;;;;;7.78;1.48;;;16.70;51.50;;;;;;4990784;28;20056;-50
2022/09/20 12:56:36;;;;;;;9.27;1.33;;;16.70;52.10;;;;;;4979517;28;20623;-50
2022/09/20 12:59:06;;;;;;;7.53;1.50;;;16.80;52.50;;;;;;4979724;28;20054;-47
2022/09/20 13:01:37;;;;;;;14.82;1.77;;;16.70;52.20;;;;;;4971905;28;20054;-52
2022/09/20 13:04:55;;;;;;;7.90;1.58;;;16.80;52.40;;;;;;4978054;28;20104;-54
2022/09/20 13:07:42;;;;;;;8.82;1.25;;;16.70;51.50;;;;;;4978639;28;20055;-53
2022/09/20 13:10:32;;;;;;;6.13;1.52;;;16.80;51.60;;;;;;4970693;28;20050;-55
2022/09/20 13:13:04;;;;;;;8.90;1.27;;;16.70;52.30;;;;;;4983490;28;20050;-53
2022/09/20 13:15:34;;;;;;;4.50;1.35;;;16.70;52.30;;;;;;4982554;28;20061;-51
2022/09/20 13:18:02;;;;;;;5.40;1.10;;;16.70;52.40;;;;;;4982678;28;20491;-51
2022/09/20 13:20:33;;;;;;;7.10;1.17;;;16.70;52.70;;;;;;4982352;28;20054;-55
2022/09/20 13:23:03;;;;;;;9.10;1.70;;;16.70;52.80;;;;;;4972942;28;20060;-53
2022/09/20 13:25:33;;;;;;;6.05;1.20;;;16.70;52.50;;;;;;4976452;28;20065;-53
2022/09/20 13:28:08;;;;;;;15.25;1.38;;;16.80;52.80;;;;;;4972846;28;20046;-50
2022/09/20 13:30:36;;;;;;;7.93;1.70;;;16.80;52.70;;;;;;4978711;28;20059;-50
2022/09/20 13:33:20;;;;;;;8.23;1.02;;;16.80;52.60;;;;;;4984552;28;20069;-52
2022/09/20 13:35:49;;;;;;;;;;;16.80;51.30;;;;;;4980524;28;20061;-50
2022/09/20 13:38:23;;;;;;;5.28;1.00;;;16.90;52.00;;;;;;4983728;28;19929;-53
2022/09/20 13:40:59;;;;;;;6.38;1.10;;;17.00;51.60;;;;;;4983751;28;20058;-48
2022/09/20 13:43:29;;;;;;;3.88;0.88;;;17.10;51.10;;;;;;4983154;28;20057;-53
2022/09/20 13:45:58;;;;;;;9.82;1.10;;;17.10;51.00;;;;;;4982383;28;20055;-49
2022/09/20 13:48:27;;;;;;;4.32;0.93;;;17.10;50.40;;;;;;4983239;28;20392;-54